createdAt,value
2022-09-12T00:01:25.019Z,12.59
2022-09-12T00:04:49.917Z,12.54
2022-09-12T00:07:24.769Z,12.50
2022-09-12T00:10:34.505Z,12.49
2022-09-12T00:13:06.061Z,12.52
2022-09-12T00:15:39.741Z,12.49
2022-09-12T00:18:13.033Z,12.46
2022-09-12T00:20:43.664Z,12.42
2022-09-12T00:23:14.128Z,12.41
2022-09-12T00:25:45.485Z,12.39
2022-09-12T00:28:20.152Z,12.37
2022-09-12T00:30:54.478Z,12.35
2022-09-12T00:33:24.924Z,12.34
2022-09-12T00:35:54.693Z,12.37
2022-09-12T00:38:23.434Z,12.34
2022-09-12T00:40:52.206Z,12.32
2022-09-12T00:43:38.586Z,12.30
2022-09-12T00:46:21.907Z,12.27
2022-09-12T00:48:56.837Z,12.24
2022-09-12T00:51:26.042Z,12.20
2022-09-12T00:53:57.268Z,12.18
2022-09-12T00:56:29.911Z,12.17
2022-09-12T00:59:03.943Z,12.19
2022-09-12T01:01:33.535Z,12.15
2022-09-12T01:04:04.016Z,12.13
2022-09-12T01:06:39.831Z,12.12
2022-09-12T01:09:15.582Z,12.11
2022-09-12T01:11:47.806Z,12.10
2022-09-12T01:14:20.978Z,12.09
2022-09-12T01:16:51.337Z,12.08
2022-09-12T01:20:06.643Z,12.04
2022-09-12T01:22:57.135Z,12.05
2022-09-12T01:25:38.673Z,12.07
2022-09-12T01:28:33.370Z,12.07
2022-09-12T01:31:08.987Z,12.06
2022-09-12T01:33:53.120Z,12.03
2022-09-12T01:36:35.291Z,11.97
2022-09-12T01:39:13.112Z,11.97
2022-09-12T01:41:53.409Z,11.94
2022-09-12T01:44:34.246Z,11.96
2022-09-12T01:47:10.228Z,12.01
2022-09-12T01:49:49.771Z,12.02
2022-09-12T01:52:24.359Z,12.04
2022-09-12T01:55:04.534Z,12.03
2022-09-12T01:57:44.686Z,12.04
2022-09-12T02:00:14.685Z,12.03
2022-09-12T02:02:52.410Z,12.01
2022-09-12T02:05:30.630Z,11.99
2022-09-12T02:08:06.748Z,12.03
2022-09-12T02:10:42.307Z,12.02
2022-09-12T02:13:18.307Z,12.02
2022-09-12T02:15:57.864Z,11.98
2022-09-12T02:18:29.663Z,11.98
2022-09-12T02:20:59.698Z,11.96
2022-09-12T02:23:35.653Z,11.93
2022-09-12T02:26:10.588Z,11.94
2022-09-12T02:28:41.890Z,11.95
2022-09-12T02:31:21.392Z,11.94
2022-09-12T02:34:08.911Z,11.92
2022-09-12T02:36:50.059Z,11.90
2022-09-12T02:39:23.757Z,11.89
2022-09-12T02:41:55.623Z,11.91
2022-09-12T02:44:27.040Z,11.91
2022-09-12T02:47:04.452Z,11.90
2022-09-12T02:49:33.599Z,11.89
2022-09-12T02:52:03.535Z,11.87
2022-09-12T02:54:32.528Z,11.85
2022-09-12T02:57:08.181Z,11.84
2022-09-12T02:59:37.191Z,11.83
2022-09-12T03:02:18.916Z,11.83
2022-09-12T03:05:07.816Z,11.83
2022-09-12T03:07:54.450Z,11.79
2022-09-12T03:10:32.871Z,11.78
2022-09-12T03:13:17.906Z,11.82
2022-09-12T03:15:57.422Z,11.81
2022-09-12T03:18:36.870Z,11.82
2022-09-12T03:21:12.871Z,11.81
2022-09-12T03:23:50.576Z,11.80
2022-09-12T03:26:25.972Z,11.78
2022-09-12T03:28:56.560Z,11.76
2022-09-12T03:31:25.889Z,11.76
2022-09-12T03:33:55.272Z,11.79
2022-09-12T03:36:27.213Z,11.78
2022-09-12T03:38:56.471Z,11.77
2022-09-12T03:41:25.523Z,11.74
2022-09-12T03:43:56.455Z,11.72
2022-09-12T03:46:25.664Z,11.69
2022-09-12T03:48:54.397Z,11.69
2022-09-12T03:51:23.527Z,11.71
2022-09-12T03:53:52.405Z,11.75
2022-09-12T03:56:21.192Z,11.75
2022-09-12T03:58:49.934Z,11.74
2022-09-12T04:01:22.091Z,11.70
2022-09-12T04:03:52.125Z,11.65
2022-09-12T04:06:22.949Z,11.63
2022-09-12T04:08:53.575Z,11.62
2022-09-12T04:11:23.343Z,11.60
2022-09-12T04:13:52.115Z,11.61
2022-09-12T04:16:21.254Z,11.64
2022-09-12T04:18:50.132Z,11.63
2022-09-12T04:21:21.651Z,11.62
2022-09-12T04:23:51.520Z,11.60
2022-09-12T04:26:21.294Z,11.60
2022-09-12T04:28:55.388Z,11.61
2022-09-12T04:31:24.960Z,11.59
2022-09-12T04:34:05.410Z,11.58
2022-09-12T04:36:34.205Z,11.64
2022-09-12T04:39:04.244Z,11.65
2022-09-12T04:41:35.278Z,11.67
2022-09-12T04:44:06.461Z,11.68
2022-09-12T04:46:38.575Z,11.67
2022-09-12T04:49:07.832Z,11.66
2022-09-12T04:51:38.813Z,11.64
2022-09-12T04:54:09.233Z,11.62
2022-09-12T04:56:39.985Z,11.61
2022-09-12T04:59:10.527Z,11.65
2022-09-12T05:01:39.943Z,11.65
2022-09-12T05:04:10.933Z,11.66
2022-09-12T05:06:41.156Z,11.68
2022-09-12T05:09:13.597Z,11.69
2022-09-12T05:12:03.832Z,11.71
2022-09-12T05:14:34.038Z,11.71
2022-09-12T05:17:04.016Z,11.69
2022-09-12T05:19:42.815Z,11.69
2022-09-12T05:22:11.575Z,11.75
2022-09-12T05:24:46.177Z,11.78
2022-09-12T05:27:17.438Z,11.78
2022-09-12T05:29:46.111Z,11.77
2022-09-12T05:32:14.862Z,11.78
2022-09-12T05:34:43.631Z,11.79
2022-09-12T05:37:12.541Z,11.80
2022-09-12T05:39:42.007Z,11.82
2022-09-12T05:42:11.638Z,11.92
2022-09-12T05:44:41.107Z,12.02
2022-09-12T05:47:12.347Z,12.15
2022-09-12T05:49:41.154Z,12.28
2022-09-12T05:52:09.973Z,12.42
2022-09-12T05:54:38.756Z,12.50
2022-09-12T05:57:07.559Z,12.60
2022-09-12T05:59:36.966Z,12.70
2022-09-12T06:02:06.310Z,12.77
2022-09-12T06:04:35.170Z,12.88
2022-09-12T06:07:04.430Z,13.02
2022-09-12T06:09:33.641Z,13.13
2022-09-12T06:12:03.029Z,13.25
2022-09-12T06:14:32.405Z,13.33
2022-09-12T06:17:01.135Z,13.39
2022-09-12T06:19:30.050Z,13.43
2022-09-12T06:21:59.005Z,13.52
2022-09-12T06:24:27.765Z,13.65
2022-09-12T06:26:56.473Z,13.78
2022-09-12T06:29:25.499Z,13.86
2022-09-12T06:31:54.397Z,13.95
2022-09-12T06:34:23.104Z,14.03
2022-09-12T06:36:51.984Z,14.14
2022-09-12T06:39:22.146Z,14.21
2022-09-12T06:41:52.347Z,14.30
2022-09-12T06:44:31.147Z,14.42
2022-09-12T06:47:00.012Z,14.53
2022-09-12T06:49:28.836Z,14.65
2022-09-12T06:51:57.558Z,14.78
2022-09-12T06:54:26.586Z,14.88
2022-09-12T06:56:55.360Z,14.96
2022-09-12T06:59:24.375Z,15.07
2022-09-12T07:01:53.578Z,15.22
2022-09-12T07:04:22.380Z,15.39
2022-09-12T07:06:51.109Z,15.54
2022-09-12T07:09:20.035Z,15.69
2022-09-12T07:11:49.150Z,15.76
2022-09-12T07:14:19.390Z,15.77
2022-09-12T07:16:48.206Z,15.77
2022-09-12T07:19:17.317Z,15.81
2022-09-12T07:21:46.301Z,15.96
2022-09-12T07:24:15.024Z,16.08
2022-09-12T07:26:43.923Z,16.26
2022-09-12T07:29:35.985Z,16.33
2022-09-12T07:32:06.109Z,16.37
2022-09-12T07:34:35.338Z,16.46
2022-09-12T07:37:04.336Z,16.54
2022-09-12T07:39:33.065Z,16.68
2022-09-12T07:42:02.167Z,16.79
2022-09-12T07:44:32.531Z,16.83
2022-09-12T07:47:01.414Z,16.84
2022-09-12T07:49:30.375Z,16.90
2022-09-12T07:51:59.190Z,16.93
2022-09-12T07:54:27.907Z,17.01
2022-09-12T07:56:56.957Z,17.02
2022-09-12T07:59:50.951Z,17.09
2022-09-12T08:02:17.503Z,17.16
2022-09-12T08:04:47.980Z,17.27
2022-09-12T08:07:18.786Z,17.37
2022-09-12T08:09:47.697Z,17.39
2022-09-12T08:12:17.325Z,17.37
2022-09-12T08:14:45.983Z,17.36
2022-09-12T08:17:14.742Z,17.28
2022-09-12T08:19:44.407Z,17.31
2022-09-12T08:22:13.244Z,17.43
2022-09-12T08:24:41.934Z,17.51
2022-09-12T08:27:10.613Z,17.42
2022-09-12T08:29:39.509Z,17.29
2022-09-12T08:32:08.382Z,17.23
2022-09-12T08:34:37.109Z,17.21
2022-09-12T08:37:06.463Z,17.37
2022-09-12T08:39:35.316Z,17.58
2022-09-12T08:42:06.047Z,17.58
2022-09-12T08:44:54.133Z,17.52
2022-09-12T08:47:28.650Z,17.45
2022-09-12T08:50:06.203Z,17.49
2022-09-12T08:52:39.684Z,17.56
2022-09-12T08:55:23.180Z,17.50
2022-09-12T08:57:52.227Z,17.35
2022-09-12T09:00:21.516Z,17.10
2022-09-12T09:03:08.061Z,17.00
2022-09-12T09:05:49.468Z,17.00
2022-09-12T09:08:35.641Z,16.96
2022-09-12T09:11:18.833Z,16.77
2022-09-12T09:14:17.326Z,16.61
2022-09-12T09:16:50.368Z,16.50
2022-09-12T09:19:25.008Z,16.51
2022-09-12T09:21:56.950Z,16.58
2022-09-12T09:24:31.122Z,16.67
2022-09-12T09:27:11.090Z,16.73
2022-09-12T09:29:55.941Z,16.81
2022-09-12T09:32:28.440Z,16.91
2022-09-12T09:34:57.109Z,17.05
2022-09-12T09:37:35.427Z,17.23
2022-09-12T09:40:12.810Z,17.51
2022-09-12T09:42:50.936Z,17.75
2022-09-12T09:45:23.649Z,17.89
2022-09-12T09:47:57.310Z,18.07
2022-09-12T09:50:26.509Z,18.33
2022-09-12T09:53:00.131Z,18.55
2022-09-12T09:55:38.141Z,18.71
2022-09-12T09:58:07.193Z,18.66
2022-09-12T10:00:38.491Z,18.57
2022-09-12T10:03:38.724Z,18.55
2022-09-12T10:06:25.946Z,18.61
2022-09-12T10:09:18.385Z,18.68
2022-09-12T10:11:48.233Z,18.69
2022-09-12T10:14:34.689Z,18.70
2022-09-12T10:17:19.873Z,18.70
2022-09-12T10:20:04.555Z,18.62
2022-09-12T10:22:39.168Z,18.44
2022-09-12T10:25:16.554Z,18.18
2022-09-12T10:27:52.289Z,17.99
2022-09-12T10:30:24.427Z,17.91
2022-09-12T10:32:54.981Z,17.85
2022-09-12T10:35:30.009Z,17.80
2022-09-12T10:38:01.882Z,17.77
2022-09-12T10:40:36.125Z,17.73
2022-09-12T10:43:18.324Z,17.61
2022-09-12T10:45:47.049Z,17.48
2022-09-12T10:48:28.317Z,17.44
2022-09-12T10:50:58.461Z,17.39
2022-09-12T10:53:34.171Z,17.38
2022-09-12T10:56:08.381Z,17.38
2022-09-12T10:59:07.271Z,17.30
2022-09-12T11:01:41.293Z,17.22
2022-09-12T11:04:27.817Z,17.20
2022-09-12T11:07:23.043Z,17.22
2022-09-12T11:09:59.701Z,17.23
2022-09-12T11:12:37.556Z,17.29
2022-09-12T11:15:26.301Z,17.26
2022-09-12T11:18:00.628Z,17.24
2022-09-12T11:21:03.551Z,17.23
2022-09-12T11:24:06.634Z,17.33
2022-09-12T11:26:50.734Z,17.52
2022-09-12T11:29:29.340Z,17.73
2022-09-12T11:32:32.774Z,17.88
2022-09-12T11:35:16.617Z,17.97
2022-09-12T11:38:10.326Z,18.03
2022-09-12T11:40:44.335Z,18.22
2022-09-12T11:43:23.619Z,18.47
2022-09-12T11:45:53.987Z,18.79
2022-09-12T11:48:38.381Z,19.12
2022-09-12T11:51:16.699Z,19.44
2022-09-12T11:53:54.499Z,19.50
2022-09-12T11:56:23.619Z,19.53
2022-09-12T11:58:58.671Z,19.57
2022-09-12T12:01:33.834Z,19.50
2022-09-12T12:04:11.470Z,19.36
2022-09-12T12:06:52.542Z,19.31
2022-09-12T12:09:21.631Z,19.18
2022-09-12T12:11:56.643Z,18.99
2022-09-12T12:14:31.574Z,18.90
2022-09-12T12:17:00.498Z,18.76
2022-09-12T12:19:35.160Z,18.64
2022-09-12T12:22:07.278Z,18.75
2022-09-12T12:24:54.009Z,18.98
2022-09-12T12:27:44.494Z,19.22
2022-09-12T12:31:00.449Z,19.30
2022-09-12T12:33:47.239Z,19.20
2022-09-12T12:36:35.139Z,19.11
2022-09-12T12:39:47.652Z,19.00
2022-09-12T12:43:03.023Z,18.93
2022-09-12T12:46:10.161Z,18.82
2022-09-12T12:48:57.336Z,18.94
2022-09-12T12:52:04.708Z,19.01
2022-09-12T12:54:50.839Z,18.93
2022-09-12T12:57:29.290Z,18.86
2022-09-12T13:00:03.927Z,18.69
2022-09-12T13:02:37.140Z,18.55
2022-09-12T13:05:19.889Z,18.34
2022-09-12T13:07:57.300Z,18.13
2022-09-12T13:10:28.746Z,18.03
2022-09-12T13:13:01.281Z,17.96
2022-09-12T13:15:48.796Z,17.83
2022-09-12T13:18:24.923Z,17.71
2022-09-12T13:21:03.303Z,17.64
2022-09-12T13:23:33.452Z,17.59
2022-09-12T13:26:04.615Z,17.57
2022-09-12T13:28:33.406Z,17.54
2022-09-12T13:31:12.004Z,17.48
2022-09-12T13:33:46.813Z,17.42
2022-09-12T13:36:36.999Z,17.36
2022-09-12T13:39:21.848Z,17.26
2022-09-12T13:42:07.932Z,17.21
2022-09-12T13:44:42.749Z,17.20
2022-09-12T13:47:21.391Z,17.18
2022-09-12T13:49:50.621Z,17.21
2022-09-12T13:52:23.563Z,17.20
2022-09-12T13:54:56.422Z,17.19
2022-09-12T13:57:31.779Z,17.19
2022-09-12T14:00:12.456Z,17.19
2022-09-12T14:02:41.735Z,17.16
2022-09-12T14:05:21.665Z,17.17
2022-09-12T14:07:55.858Z,17.15
2022-09-12T14:10:32.541Z,17.14
2022-09-12T14:13:08.037Z,17.16
2022-09-12T14:15:38.321Z,17.15
2022-09-12T14:18:24.207Z,17.26
2022-09-12T14:20:59.342Z,17.40
2022-09-12T14:23:31.947Z,17.49
2022-09-12T14:26:06.161Z,17.62
2022-09-12T14:28:36.969Z,17.74
2022-09-12T14:31:07.291Z,17.79
2022-09-12T14:33:48.308Z,17.74
2022-09-12T14:36:22.961Z,17.67
2022-09-12T14:38:52.745Z,17.62
2022-09-12T14:41:26.763Z,17.53
2022-09-12T14:44:01.045Z,17.45
2022-09-12T14:46:33.674Z,17.39
2022-09-12T14:49:07.984Z,17.33
2022-09-12T14:51:39.946Z,17.30
2022-09-12T14:54:35.815Z,17.27
2022-09-12T14:57:06.532Z,17.25
2022-09-12T14:59:41.941Z,17.24
2022-09-12T15:02:24.759Z,17.25
2022-09-12T15:05:14.171Z,17.24
2022-09-12T15:07:49.798Z,17.23
2022-09-12T15:10:30.874Z,17.21
2022-09-12T15:13:42.622Z,17.19
2022-09-12T15:16:27.320Z,17.18
2022-09-12T15:18:56.383Z,17.15
2022-09-12T15:21:37.334Z,17.08
2022-09-12T15:24:11.647Z,17.06
2022-09-12T15:26:43.143Z,17.01
2022-09-12T15:29:15.781Z,16.97
2022-09-12T15:31:47.494Z,16.93
2022-09-12T15:34:16.301Z,16.89
2022-09-12T15:36:45.100Z,16.81
2022-09-12T15:39:14.098Z,16.78
2022-09-12T15:41:44.843Z,16.77
2022-09-12T15:44:16.390Z,16.76
2022-09-12T15:46:45.345Z,16.73
2022-09-12T15:49:14.053Z,16.71
2022-09-12T15:51:42.697Z,16.68
2022-09-12T15:54:14.243Z,16.66
2022-09-12T15:56:43.511Z,16.63
2022-09-12T15:59:16.063Z,16.61
2022-09-12T16:01:55.394Z,16.56
2022-09-12T16:04:27.516Z,16.55
2022-09-12T16:06:57.027Z,16.49
2022-09-12T16:09:25.818Z,16.43
2022-09-12T16:11:54.766Z,16.40
2022-09-12T16:14:29.852Z,16.35
2022-09-12T16:16:58.817Z,16.31
2022-09-12T16:19:27.821Z,16.27
2022-09-12T16:21:56.790Z,16.21
2022-09-12T16:24:25.705Z,16.12
2022-09-12T16:26:56.870Z,16.05
2022-09-12T16:29:30.087Z,15.98
2022-09-12T16:31:58.863Z,15.93
2022-09-12T16:34:27.724Z,15.89
2022-09-12T16:36:56.973Z,15.89
2022-09-12T16:39:25.831Z,15.87
2022-09-12T16:41:54.509Z,15.86
2022-09-12T16:44:23.341Z,15.83
2022-09-12T16:46:52.386Z,15.82
2022-09-12T16:49:21.618Z,15.79
2022-09-12T16:51:50.369Z,15.77
2022-09-12T16:54:19.054Z,15.73
2022-09-12T16:56:49.158Z,15.68
2022-09-12T16:59:20.273Z,15.63
2022-09-12T17:01:49.107Z,15.56
2022-09-12T17:04:21.667Z,15.52
2022-09-12T17:06:52.204Z,15.47
2022-09-12T17:09:21.822Z,15.39
2022-09-12T17:11:52.728Z,15.37
2022-09-12T17:14:22.642Z,15.40
2022-09-12T17:16:52.185Z,15.40
2022-09-12T17:19:23.916Z,15.38
2022-09-12T17:21:53.093Z,15.33
2022-09-12T17:24:22.917Z,15.32
2022-09-12T17:26:53.073Z,15.28
2022-09-12T17:29:23.466Z,15.24
2022-09-12T17:31:54.555Z,15.21
2022-09-12T17:34:43.790Z,15.18
2022-09-12T17:37:16.048Z,15.09
2022-09-12T17:39:50.766Z,15.03
2022-09-12T17:42:22.259Z,14.97
2022-09-12T17:44:55.976Z,14.95
2022-09-12T17:47:28.335Z,14.93
2022-09-12T17:50:27.426Z,14.92
2022-09-12T17:52:53.242Z,14.88
2022-09-12T17:55:25.368Z,14.84
2022-09-12T17:57:58.635Z,14.81
2022-09-12T18:00:45.328Z,14.77
2022-09-12T18:03:17.852Z,14.71
2022-09-12T18:05:51.118Z,14.65
2022-09-12T18:08:24.009Z,14.61
2022-09-12T18:11:04.484Z,14.58
2022-09-12T18:13:40.046Z,14.59
2022-09-12T18:16:15.594Z,14.58
2022-09-12T18:18:48.188Z,14.55
2022-09-12T18:21:20.624Z,14.50
2022-09-12T18:23:52.832Z,14.45
2022-09-12T18:26:27.403Z,14.41
2022-09-12T18:29:00.109Z,14.38
2022-09-12T18:31:33.712Z,14.31
2022-09-12T18:34:06.422Z,14.26
2022-09-12T18:36:39.026Z,14.19
2022-09-12T18:39:11.717Z,14.14
2022-09-12T18:42:16.388Z,14.15
2022-09-12T18:47:58.679Z,14.09
2022-09-12T18:50:38.499Z,14.07
2022-09-12T18:53:11.623Z,14.02
2022-09-12T18:55:43.736Z,14.00
2022-09-12T18:58:16.372Z,13.98
2022-09-12T19:00:49.711Z,13.93
2022-09-12T19:03:22.175Z,13.88
2022-09-12T19:05:54.923Z,13.83
2022-09-12T19:08:27.065Z,13.82
2022-09-12T19:10:59.950Z,13.76
2022-09-12T19:13:33.023Z,13.75
2022-09-12T19:16:09.565Z,13.72
2022-09-12T19:18:42.900Z,13.70
2022-09-12T19:21:25.421Z,13.70
2022-09-12T19:24:01.373Z,13.68
2022-09-12T19:26:34.412Z,13.65
2022-09-12T19:29:07.446Z,13.62
2022-09-12T19:31:39.788Z,13.55
2022-09-12T19:34:13.645Z,13.49
2022-09-12T19:36:47.531Z,13.50
2022-09-12T19:39:20.781Z,13.46
2022-09-12T19:41:53.272Z,13.41
2022-09-12T19:44:27.686Z,13.36
2022-09-12T19:46:59.624Z,13.33
2022-09-12T19:49:31.579Z,13.32
2022-09-12T19:52:03.954Z,13.29
2022-09-12T19:54:35.970Z,13.25
2022-09-12T19:57:08.119Z,13.19
2022-09-12T19:59:40.247Z,13.17
2022-09-12T20:02:12.312Z,13.20
2022-09-12T20:04:44.503Z,13.19
2022-09-12T20:07:16.642Z,13.18
2022-09-12T20:09:48.963Z,13.16
2022-09-12T20:12:20.941Z,13.14
2022-09-12T20:14:52.801Z,13.11
2022-09-12T20:17:24.760Z,13.08
2022-09-12T20:19:59.117Z,13.05
2022-09-12T20:22:31.130Z,13.01
2022-09-12T20:25:03.102Z,12.96
2022-09-12T20:27:35.000Z,12.93
2022-09-12T20:30:09.412Z,12.90
2022-09-12T20:32:41.957Z,12.93
2022-09-12T20:35:14.446Z,12.90
2022-09-12T20:37:47.029Z,12.86
2022-09-12T20:40:20.219Z,12.81
2022-09-12T20:42:52.294Z,12.81
2022-09-12T21:55:12.477Z,12.17
2022-09-12T23:02:12.451Z,11.47
